Time;durP1;ratioP1;P1;durP2;ratioP2;P2;SDS_P1;SDS_P2;PMS_P1;PMS_P2;Temp;Humidity;BMP_temperature;BMP_pressure;BME280_temperature;BME280_humidity;BME280_pressure;Samples;Min_cycle;Max_cycle;Signal;HPM_P1;HPM_P2
2023/12/08 00:01:01;;;;;;;15.10;12.63;;;;;;;;;;4975138;28;20525;-48
2023/12/08 00:03:28;;;;;;;17.07;12.20;;;;;;;;;;4975267;28;20447;-47
2023/12/08 00:05:54;;;;;;;16.63;12.20;;;;;;;;;;4975345;28;20945;-48
2023/12/08 00:08:20;;;;;;;14.10;12.33;;;;;;;;;;4974903;28;20941;-48
2023/12/08 00:10:46;;;;;;;13.17;11.27;;;;;;;;;;4974717;28;20433;-48
2023/12/08 00:13:12;;;;;;;14.90;12.20;;;;;;;;;;4975270;28;20215;-47
2023/12/08 00:15:38;;;;;;;14.70;11.73;;;;;;;;;;4975310;28;20222;-47
2023/12/08 00:18:04;;;;;;;14.73;11.63;;;;;;;;;;4974954;28;20529;-47
2023/12/08 00:20:32;;;;;;;16.47;12.37;;;;;;;;;;4974675;28;20254;-47
2023/12/08 00:22:58;;;;;;;14.97;11.80;;;;;;;;;;4972427;28;20477;-48
2023/12/08 00:25:24;;;;;;;12.17;10.37;;;;;;;;;;4973285;28;20442;-47
2023/12/08 00:27:50;;;;;;;12.93;11.13;;;;;;;;;;4974525;28;20795;-47
2023/12/08 00:30:16;;;;;;;13.70;12.00;;;;;;;;;;4974862;28;20223;-47
2023/12/08 00:32:41;;;;;;;15.37;12.63;;;;;;;;;;4974815;28;20445;-47
2023/12/08 00:35:08;;;;;;;13.90;11.40;;;;;;;;;;4974537;28;21061;-47
2023/12/08 00:37:35;;;;;;;15.50;11.40;;;;;;;;;;4974660;28;20206;-47
2023/12/08 00:40:02;;;;;;;12.77;11.30;;;;;;;;;;4974756;28;20443;-47
2023/12/08 00:42:28;;;;;;;13.67;11.00;;;;;;;;;;4974650;28;20469;-47
2023/12/08 00:44:54;;;;;;;15.47;11.17;;;;;;;;;;4974629;28;20470;-47
2023/12/08 00:47:20;;;;;;;13.63;11.73;;;;;;;;;;4974526;28;20214;-48
2023/12/08 00:49:46;;;;;;;14.33;11.60;;;;;;;;;;4974210;28;20473;-47
2023/12/08 00:52:12;;;;;;;14.33;11.47;;;;;;;;;;4974492;28;20235;-48
2023/12/08 00:54:40;;;;;;;14.67;10.93;;;;;;;;;;4974398;28;20198;-48
2023/12/08 00:57:06;;;;;;;14.60;11.20;;;;;;;;;;4974237;28;20450;-46
2023/12/08 00:59:32;;;;;;;14.57;11.63;;;;;;;;;;4974154;28;20983;-46
2023/12/08 01:01:58;;;;;;;13.87;10.70;;;;;;;;;;4974455;28;20211;-46
2023/12/08 01:04:24;;;;;;;14.10;10.17;;;;;;;;;;4974167;28;20195;-47
2023/12/08 01:06:50;;;;;;;13.33;10.77;;;;;;;;;;4973983;28;20282;-46
2023/12/08 01:09:16;;;;;;;13.07;10.43;;;;;;;;;;4974028;28;20509;-46
2023/12/08 01:11:43;;;;;;;14.50;10.90;;;;;;;;;;4974103;28;20886;-46
2023/12/08 01:14:09;;;;;;;13.47;10.17;;;;;;;;;;4974056;28;20198;-46
2023/12/08 01:16:38;;;;;;;11.87;10.13;;;;;;;;;;4973863;28;20485;-46
2023/12/08 01:19:04;;;;;;;11.10;9.67;;;;;;;;;;4971951;28;20199;-47
2023/12/08 01:21:30;;;;;;;14.80;10.10;;;;;;;;;;4971962;28;20434;-47
2023/12/08 01:23:56;;;;;;;12.90;10.20;;;;;;;;;;4972120;28;20445;-48
2023/12/08 01:26:22;;;;;;;12.57;9.90;;;;;;;;;;4973570;28;20199;-47
2023/12/08 01:28:49;;;;;;;13.90;10.73;;;;;;;;;;4973535;28;20322;-47
2023/12/08 01:31:15;;;;;;;12.87;10.30;;;;;;;;;;4973301;28;20562;-47
2023/12/08 01:33:41;;;;;;;11.67;9.93;;;;;;;;;;4973355;28;20442;-47
2023/12/08 01:36:07;;;;;;;12.83;10.03;;;;;;;;;;4971997;28;20265;-48
2023/12/08 01:38:33;;;;;;;12.47;9.87;;;;;;;;;;4973359;28;20661;-47
2023/12/08 01:40:59;;;;;;;14.77;10.47;;;;;;;;;;4973260;28;20438;-47
2023/12/08 01:43:25;;;;;;;12.00;9.90;;;;;;;;;;4971835;28;20627;-48
2023/12/08 01:45:55;;;;;;;13.53;10.20;;;;;;;;;;4971603;28;20203;-47
2023/12/08 01:48:21;;;;;;;15.43;10.67;;;;;;;;;;4966426;28;20239;-47
2023/12/08 01:50:47;;;;;;;12.70;9.47;;;;;;;;;;4968013;28;20486;-48
2023/12/08 01:53:13;;;;;;;12.17;9.93;;;;;;;;;;4966640;28;20210;-47
2023/12/08 01:55:39;;;;;;;12.43;9.97;;;;;;;;;;4970266;28;20210;-47
2023/12/08 01:58:05;;;;;;;12.77;10.00;;;;;;;;;;4971457;28;20816;-47
2023/12/08 02:00:31;;;;;;;13.60;10.47;;;;;;;;;;4964770;28;20195;-47
2023/12/08 02:02:58;;;;;;;14.40;10.90;;;;;;;;;;4966689;28;20493;-48
2023/12/08 02:05:26;;;;;;;12.47;10.60;;;;;;;;;;4963017;28;20210;-47
2023/12/08 02:07:52;;;;;;;11.93;10.03;;;;;;;;;;4964387;28;20757;-47
2023/12/08 02:10:19;;;;;;;12.77;10.27;;;;;;;;;;4964483;28;20474;-47
2023/12/08 02:12:45;;;;;;;12.87;10.00;;;;;;;;;;4965999;28;20456;-48
2023/12/08 02:15:12;;;;;;;12.67;10.00;;;;;;;;;;4963042;28;20454;-47
2023/12/08 02:17:38;;;;;;;13.03;11.10;;;;;;;;;;4962834;28;20438;-48
2023/12/08 02:20:07;;;;;;;11.73;9.30;;;;;;;;;;4962507;28;20440;-47
2023/12/08 02:22:33;;;;;;;10.57;9.43;;;;;;;;;;4964306;28;20499;-47
2023/12/08 02:25:00;;;;;;;14.53;10.57;;;;;;;;;;4964206;28;20857;-47
2023/12/08 02:27:27;;;;;;;11.83;9.13;;;;;;;;;;4962691;28;20488;-47
2023/12/08 02:29:53;;;;;;;15.87;10.37;;;;;;;;;;4964454;28;20992;-48
2023/12/08 02:32:22;;;;;;;13.13;9.57;;;;;;;;;;4964324;28;20442;-48
2023/12/08 02:34:49;;;;;;;12.47;9.47;;;;;;;;;;4966854;28;20446;-48
2023/12/08 02:37:15;;;;;;;12.97;10.10;;;;;;;;;;4962123;28;20859;-47
2023/12/08 02:39:41;;;;;;;12.10;9.00;;;;;;;;;;4964273;28;20980;-48
2023/12/08 02:42:09;;;;;;;11.83;8.77;;;;;;;;;;4962437;28;20456;-47
2023/12/08 02:44:35;;;;;;;11.10;8.43;;;;;;;;;;4967378;28;20442;-48
2023/12/08 02:47:01;;;;;;;11.27;9.23;;;;;;;;;;4962300;28;20449;-47
2023/12/08 02:49:27;;;;;;;11.07;9.03;;;;;;;;;;4960719;28;20556;-47
2023/12/08 02:51:53;;;;;;;11.03;8.83;;;;;;;;;;4964206;28;20697;-48
2023/12/08 02:54:19;;;;;;;12.87;8.30;;;;;;;;;;4960737;28;20207;-47
2023/12/08 02:56:45;;;;;;;11.90;9.00;;;;;;;;;;4962455;28;20461;-47
2023/12/08 02:59:12;;;;;;;11.43;8.13;;;;;;;;;;4960795;28;20207;-47
2023/12/08 03:01:38;;;;;;;11.00;8.17;;;;;;;;;;4960812;28;20210;-48
2023/12/08 03:04:04;;;;;;;11.17;8.43;;;;;;;;;;4960484;28;20458;-48
2023/12/08 03:06:30;;;;;;;10.37;8.30;;;;;;;;;;4960486;28;20223;-48
2023/12/08 03:08:56;;;;;;;12.33;8.60;;;;;;;;;;4962137;28;20540;-48
2023/12/08 03:11:22;;;;;;;11.47;8.60;;;;;;;;;;4960710;28;20283;-47
2023/12/08 03:13:48;;;;;;;11.57;8.90;;;;;;;;;;4960464;28;20855;-47
2023/12/08 03:16:16;;;;;;;11.97;8.50;;;;;;;;;;4958841;28;20229;-47
2023/12/08 03:18:42;;;;;;;11.47;9.03;;;;;;;;;;4961097;28;20203;-48
2023/12/08 03:21:08;;;;;;;11.67;8.70;;;;;;;;;;4960416;28;20452;-47
2023/12/08 03:23:34;;;;;;;10.17;9.03;;;;;;;;;;4962046;28;20219;-47
2023/12/08 03:26:00;;;;;;;10.80;8.63;;;;;;;;;;4960235;28;20443;-48
2023/12/08 03:28:26;;;;;;;10.13;8.67;;;;;;;;;;4960327;28;20501;-47
2023/12/08 03:30:52;;;;;;;11.50;8.70;;;;;;;;;;4960477;28;21522;-47
2023/12/08 03:33:19;;;;;;;10.77;8.87;;;;;;;;;;4960328;28;20218;-48
2023/12/08 03:35:45;;;;;;;9.93;8.87;;;;;;;;;;4960296;28;20206;-47
2023/12/08 03:38:11;;;;;;;11.03;8.73;;;;;;;;;;4960404;28;20787;-47
2023/12/08 03:40:37;;;;;;;10.80;8.60;;;;;;;;;;4961934;28;20203;-47
2023/12/08 03:43:03;;;;;;;10.13;8.63;;;;;;;;;;4960393;28;20285;-48
2023/12/08 03:45:29;;;;;;;11.50;9.10;;;;;;;;;;4958827;28;20602;-47
2023/12/08 03:47:55;;;;;;;10.57;8.67;;;;;;;;;;4960214;28;20195;-48
2023/12/08 03:50:23;;;;;;;11.73;8.07;;;;;;;;;;4960166;28;20474;-48
2023/12/08 03:52:53;;;;;;;10.33;8.00;;;;;;;;;;4960199;28;20222;-47
2023/12/08 03:55:19;;;;;;;9.77;8.43;;;;;;;;;;4961093;28;20841;-48
2023/12/08 03:57:44;;;;;;;11.60;9.37;;;;;;;;;;4965345;28;20426;-47
2023/12/08 04:00:11;;;;;;;11.40;9.67;;;;;;;;;;4963602;28;20809;-47
2023/12/08 04:02:37;;;;;;;10.50;9.10;;;;;;;;;;4965257;28;20728;-47
2023/12/08 04:05:03;;;;;;;11.83;8.83;;;;;;;;;;4965020;28;20517;-48
2023/12/08 04:07:31;;;;;;;10.53;9.10;;;;;;;;;;4963530;28;20210;-48
2023/12/08 04:09:57;;;;;;;10.43;9.10;;;;;;;;;;4963517;28;20837;-48
2023/12/08 04:12:23;;;;;;;11.07;9.53;;;;;;;;;;4963504;28;20957;-47
2023/12/08 04:14:49;;;;;;;10.50;9.17;;;;;;;;;;4963362;28;20566;-48
2023/12/08 04:17:15;;;;;;;11.73;9.90;;;;;;;;;;4961691;28;20469;-47
2023/12/08 04:19:40;;;;;;;11.00;9.17;;;;;;;;;;4965048;28;20474;-48
2023/12/08 04:22:06;;;;;;;12.10;9.97;;;;;;;;;;4961336;28;20700;-48
2023/12/08 04:24:34;;;;;;;10.77;9.00;;;;;;;;;;4961726;28;20654;-47
2023/12/08 04:27:00;;;;;;;11.63;10.00;;;;;;;;;;4962918;28;20238;-48
2023/12/08 04:29:27;;;;;;;11.20;9.60;;;;;;;;;;4961409;28;20494;-48
2023/12/08 04:31:53;;;;;;;11.30;9.27;;;;;;;;;;4963081;28;20456;-47
2023/12/08 04:34:19;;;;;;;12.37;9.70;;;;;;;;;;4963079;28;20199;-47
2023/12/08 04:36:45;;;;;;;13.50;9.83;;;;;;;;;;4962924;28;20447;-47
2023/12/08 04:39:11;;;;;;;11.27;9.07;;;;;;;;;;4961463;28;20671;-48
2023/12/08 04:41:38;;;;;;;13.70;9.93;;;;;;;;;;4962755;28;20431;-47
2023/12/08 04:44:04;;;;;;;11.30;9.73;;;;;;;;;;4960972;28;20457;-47
2023/12/08 04:46:30;;;;;;;12.53;9.77;;;;;;;;;;4962944;28;20816;-47
2023/12/08 04:48:56;;;;;;;14.00;9.97;;;;;;;;;;4962708;28;20219;-48
2023/12/08 04:51:22;;;;;;;12.20;10.07;;;;;;;;;;4962831;28;20287;-48
2023/12/08 04:53:48;;;;;;;10.67;9.43;;;;;;;;;;4960994;28;20211;-47
2023/12/08 04:56:14;;;;;;;14.27;10.77;;;;;;;;;;4962601;28;20222;-47
2023/12/08 04:58:42;;;;;;;13.43;10.20;;;;;;;;;;4962621;28;20215;-47
2023/12/08 05:01:12;;;;;;;12.33;10.17;;;;;;;;;;4960740;28;20478;-48
2023/12/08 05:03:38;;;;;;;12.20;9.50;;;;;;;;;;4962992;28;20447;-48
2023/12/08 05:06:04;;;;;;;11.03;9.47;;;;;;;;;;4960656;28;20446;-48
2023/12/08 05:08:30;;;;;;;13.27;10.30;;;;;;;;;;4960710;28;20203;-47
2023/12/08 05:10:56;;;;;;;13.30;10.27;;;;;;;;;;4960685;28;21439;-47
2023/12/08 05:13:22;;;;;;;14.00;11.07;;;;;;;;;;4962383;28;20493;-47
2023/12/08 05:15:49;;;;;;;14.13;11.13;;;;;;;;;;4960328;28;20246;-48
2023/12/08 05:18:15;;;;;;;14.90;11.30;;;;;;;;;;4962236;28;20210;-48
2023/12/08 05:20:41;;;;;;;13.07;10.83;;;;;;;;;;4960637;28;20830;-48
2023/12/08 05:23:07;;;;;;;14.10;10.60;;;;;;;;;;4960381;28;20343;-47
2023/12/08 05:25:33;;;;;;;13.93;11.30;;;;;;;;;;4962082;28;20274;-47
2023/12/08 05:27:59;;;;;;;13.33;11.10;;;;;;;;;;4960034;28;20800;-48
2023/12/08 05:30:25;;;;;;;12.47;11.00;;;;;;;;;;4962063;28;20508;-48
2023/12/08 05:32:52;;;;;;;14.73;11.00;;;;;;;;;;4961918;28;20255;-48
2023/12/08 05:35:18;;;;;;;13.53;10.87;;;;;;;;;;4960117;28;20566;-48
2023/12/08 05:37:44;;;;;;;13.27;10.97;;;;;;;;;;4960235;28;20441;-47
2023/12/08 05:40:10;;;;;;;14.93;11.80;;;;;;;;;;4961834;28;20194;-47
2023/12/08 05:42:36;;;;;;;13.70;11.87;;;;;;;;;;4961754;28;20446;-47
2023/12/08 05:45:03;;;;;;;15.47;11.83;;;;;;;;;;4959774;28;20435;-48
2023/12/08 05:47:29;;;;;;;14.43;12.37;;;;;;;;;;4961536;28;20569;-48
2023/12/08 05:49:56;;;;;;;15.80;12.27;;;;;;;;;;4959978;28;20474;-48
2023/12/08 05:52:23;;;;;;;15.93;11.20;;;;;;;;;;4960055;28;20205;-47
2023/12/08 05:54:49;;;;;;;14.93;11.67;;;;;;;;;;4959859;28;20443;-48
2023/12/08 05:57:15;;;;;;;13.53;11.10;;;;;;;;;;4961384;28;20846;-47
2023/12/08 05:59:41;;;;;;;15.50;11.30;;;;;;;;;;4963180;28;20217;-48
2023/12/08 06:02:07;;;;;;;15.07;11.67;;;;;;;;;;4961252;28;20719;-47
2023/12/08 06:04:33;;;;;;;15.60;12.80;;;;;;;;;;4961181;28;20442;-47
2023/12/08 06:07:00;;;;;;;16.67;11.80;;;;;;;;;;4961106;28;21007;-48
2023/12/08 06:09:26;;;;;;;14.77;11.90;;;;;;;;;;4961299;28;20589;-47
2023/12/08 06:11:52;;;;;;;17.67;12.20;;;;;;;;;;4960992;28;20436;-47
2023/12/08 06:14:18;;;;;;;14.97;11.20;;;;;;;;;;4961140;28;20202;-47
2023/12/08 06:16:44;;;;;;;12.37;10.13;;;;;;;;;;4960646;28;20468;-48
2023/12/08 06:19:10;;;;;;;12.30;10.63;;;;;;;;;;4958717;28;20684;-47
2023/12/08 06:21:36;;;;;;;15.43;11.93;;;;;;;;;;4960947;28;20435;-47
2023/12/08 06:24:04;;;;;;;13.20;11.57;;;;;;;;;;4960615;28;20198;-48
2023/12/08 06:26:30;;;;;;;14.57;11.70;;;;;;;;;;4962778;28;20254;-48
2023/12/08 06:28:56;;;;;;;15.07;11.47;;;;;;;;;;4959066;28;20529;-47
2023/12/08 06:31:22;;;;;;;15.50;11.73;;;;;;;;;;4961157;28;20199;-47
2023/12/08 06:33:48;;;;;;;14.03;10.93;;;;;;;;;;4959068;28;20565;-47
2023/12/08 06:36:15;;;;;;;13.73;11.23;;;;;;;;;;4960592;28;20951;-48
2023/12/08 06:38:42;;;;;;;14.53;11.73;;;;;;;;;;4960836;28;20670;-48
2023/12/08 06:41:09;;;;;;;13.70;11.33;;;;;;;;;;4958991;28;20438;-47
2023/12/08 06:43:35;;;;;;;15.80;12.17;;;;;;;;;;4958919;28;20638;-45
2023/12/08 06:46:01;;;;;;;14.60;12.03;;;;;;;;;;4967051;28;20437;-46
2023/12/08 06:48:27;;;;;;;14.80;12.00;;;;;;;;;;4980044;28;20204;-47
2023/12/08 06:50:53;;;;;;;14.53;11.77;;;;;;;;;;4979802;28;20229;-46
2023/12/08 06:53:19;;;;;;;15.93;11.83;;;;;;;;;;4980083;28;20233;-46
2023/12/08 06:55:45;;;;;;;14.83;12.37;;;;;;;;;;4978445;28;20210;-46
2023/12/08 06:58:13;;;;;;;15.90;12.00;;;;;;;;;;4983736;28;20438;-46
2023/12/08 07:00:39;;;;;;;15.63;12.50;;;;;;;;;;4979385;28;20202;-46
2023/12/08 07:03:05;;;;;;;18.40;12.97;;;;;;;;;;4978200;28;20434;-46
2023/12/08 07:05:31;;;;;;;14.53;11.30;;;;;;;;;;4979791;28;20197;-46
2023/12/08 07:07:57;;;;;;;14.70;11.77;;;;;;;;;;4978771;28;20441;-46
2023/12/08 07:10:23;;;;;;;13.90;11.20;;;;;;;;;;4981524;28;20226;-46
2023/12/08 07:12:49;;;;;;;13.23;11.20;;;;;;;;;;4980003;28;20972;-46
2023/12/08 07:15:17;;;;;;;17.07;12.33;;;;;;;;;;4979848;28;20476;-46
2023/12/08 07:17:42;;;;;;;15.10;12.30;;;;;;;;;;4979647;28;20434;-46
2023/12/08 07:20:09;;;;;;;15.23;11.90;;;;;;;;;;4979716;28;20776;-46
2023/12/08 07:22:35;;;;;;;16.83;12.27;;;;;;;;;;4979672;28;20229;-46
2023/12/08 07:25:03;;;;;;;15.10;12.27;;;;;;;;;;4979566;28;20529;-46
2023/12/08 07:27:29;;;;;;;12.77;11.43;;;;;;;;;;4979628;28;20501;-46
2023/12/08 07:29:55;;;;;;;16.77;11.93;;;;;;;;;;4980024;28;20508;-46
2023/12/08 07:32:22;;;;;;;14.70;11.33;;;;;;;;;;4983311;28;20520;-46
2023/12/08 07:34:49;;;;;;;16.93;11.77;;;;;;;;;;4983395;28;20479;-46
2023/12/08 07:37:15;;;;;;;16.13;11.57;;;;;;;;;;4983314;28;20429;-46
2023/12/08 07:39:41;;;;;;;15.63;12.33;;;;;;;;;;4983172;28;20441;-46
2023/12/08 07:42:07;;;;;;;17.77;12.47;;;;;;;;;;4982469;28;20433;-46
2023/12/08 07:44:34;;;;;;;14.80;12.33;;;;;;;;;;4983965;28;20715;-46
2023/12/08 07:47:00;;;;;;;13.50;11.73;;;;;;;;;;4982039;28;20465;-46
2023/12/08 07:49:28;;;;;;;17.43;11.43;;;;;;;;;;4981182;28;20547;-46
2023/12/08 07:51:54;;;;;;;17.80;11.80;;;;;;;;;;4982579;28;20470;-46
2023/12/08 07:54:20;;;;;;;13.33;11.10;;;;;;;;;;4986312;28;20465;-46
2023/12/08 07:56:46;;;;;;;12.70;10.43;;;;;;;;;;4982737;28;20679;-46
2023/12/08 07:59:12;;;;;;;14.70;12.60;;;;;;;;;;4981247;28;20205;-46
2023/12/08 08:01:38;;;;;;;14.67;11.37;;;;;;;;;;4984872;28;20190;-46
2023/12/08 08:04:04;;;;;;;15.40;12.13;;;;;;;;;;4983210;28;20202;-46
2023/12/08 08:06:31;;;;;;;12.93;11.33;;;;;;;;;;4983186;28;20260;-46
2023/12/08 08:08:57;;;;;;;16.60;12.50;;;;;;;;;;4982985;28;20462;-46
2023/12/08 08:11:23;;;;;;;14.10;11.03;;;;;;;;;;4984023;28;20932;-46
2023/12/08 08:13:49;;;;;;;13.83;11.80;;;;;;;;;;4981254;28;20203;-46
2023/12/08 08:16:15;;;;;;;13.43;12.03;;;;;;;;;;4982689;28;20619;-46
2023/12/08 08:18:41;;;;;;;17.50;13.80;;;;;;;;;;4984490;28;20232;-46
2023/12/08 08:21:07;;;;;;;17.10;12.80;;;;;;;;;;4982687;28;21011;-46
2023/12/08 08:23:35;;;;;;;15.77;12.30;;;;;;;;;;4982807;28;20226;-46
2023/12/08 08:26:01;;;;;;;15.10;12.03;;;;;;;;;;4982671;28;20461;-46
2023/12/08 08:28:27;;;;;;;17.37;12.63;;;;;;;;;;4984478;28;20888;-46
2023/12/08 08:30:53;;;;;;;16.43;13.47;;;;;;;;;;4980767;28;20233;-47
2023/12/08 08:33:18;;;;;;;16.23;13.70;;;;;;;;;;4982520;28;20198;-46
2023/12/08 08:35:44;;;;;;;16.73;12.90;;;;;;;;;;4980818;28;20249;-45
2023/12/08 08:38:11;;;;;;;15.30;12.30;;;;;;;;;;4982582;28;20617;-46
2023/12/08 08:40:38;;;;;;;18.97;13.40;;;;;;;;;;4984067;28;20492;-46
2023/12/08 08:43:04;;;;;;;15.43;12.30;;;;;;;;;;4982301;28;20983;-46
2023/12/08 08:45:30;;;;;;;15.67;12.97;;;;;;;;;;4980596;28;20449;-46
2023/12/08 08:47:56;;;;;;;16.27;13.17;;;;;;;;;;4980561;28;20198;-46
2023/12/08 08:50:22;;;;;;;20.37;13.73;;;;;;;;;;4984405;28;20288;-46
2023/12/08 08:52:49;;;;;;;18.83;13.47;;;;;;;;;;4980845;28;20214;-46
2023/12/08 08:55:15;;;;;;;16.10;12.80;;;;;;;;;;4982306;28;20186;-46
2023/12/08 08:57:43;;;;;;;19.07;14.03;;;;;;;;;;4980744;28;20448;-46
2023/12/08 09:00:12;;;;;;;16.00;12.97;;;;;;;;;;4980596;28;20516;-46
2023/12/08 09:02:38;;;;;;;15.77;13.03;;;;;;;;;;4982135;28;20790;-46
2023/12/08 09:05:04;;;;;;;15.97;12.57;;;;;;;;;;4981838;28;20438;-47
2023/12/08 09:07:30;;;;;;;14.90;11.80;;;;;;;;;;4981984;28;20536;-46
2023/12/08 09:09:56;;;;;;;14.20;12.30;;;;;;;;;;4982028;28;20576;-46
2023/12/08 09:12:22;;;;;;;15.10;12.03;;;;;;;;;;4985240;28;20202;-46
2023/12/08 09:14:50;;;;;;;14.50;11.77;;;;;;;;;;4980895;28;20203;-46
2023/12/08 09:17:16;;;;;;;17.10;12.27;;;;;;;;;;4983330;28;20797;-46
2023/12/08 09:19:42;;;;;;;15.97;12.23;;;;;;;;;;4983732;28;20446;-46
2023/12/08 09:22:08;;;;;;;15.80;11.87;;;;;;;;;;4983316;28;20256;-46
2023/12/08 09:24:33;;;;;;;14.07;11.83;;;;;;;;;;4981802;28;20653;-46
2023/12/08 09:27:01;;;;;;;16.03;12.73;;;;;;;;;;4981447;28;20276;-46
2023/12/08 09:29:27;;;;;;;19.10;12.63;;;;;;;;;;4981572;28;20692;-46
2023/12/08 09:31:54;;;;;;;14.77;11.90;;;;;;;;;;4981372;28;20923;-46
2023/12/08 09:34:20;;;;;;;15.97;12.43;;;;;;;;;;4980112;28;20429;-45
2023/12/08 09:36:46;;;;;;;14.97;12.40;;;;;;;;;;4983244;28;20804;-46
2023/12/08 09:39:12;;;;;;;17.93;13.17;;;;;;;;;;4981363;28;20247;-46
2023/12/08 09:41:40;;;;;;;17.53;13.17;;;;;;;;;;4981329;28;20205;-46
2023/12/08 09:44:08;;;;;;;15.83;12.93;;;;;;;;;;4981147;28;20446;-46
2023/12/08 09:46:35;;;;;;;16.23;12.87;;;;;;;;;;4982956;28;20434;-46
2023/12/08 09:49:04;;;;;;;17.13;13.43;;;;;;;;;;4982714;28;20480;-45
2023/12/08 09:51:30;;;;;;;15.20;12.83;;;;;;;;;;4984638;28;20461;-46
2023/12/08 09:53:57;;;;;;;16.03;12.90;;;;;;;;;;4990520;28;20877;-46
2023/12/08 09:56:24;;;;;;;18.07;14.20;;;;;;;;;;4992708;28;20456;-46
2023/12/08 09:58:51;;;;;;;18.90;14.67;;;;;;;;;;4992536;28;20866;-46
2023/12/08 10:01:17;;;;;;;23.77;14.63;;;;;;;;;;4992607;28;20453;-46
2023/12/08 10:03:43;;;;;;;18.17;14.27;;;;;;;;;;4992495;28;20477;-46
2023/12/08 10:06:11;;;;;;;19.93;14.30;;;;;;;;;;4992570;28;20268;-46
2023/12/08 10:08:37;;;;;;;20.07;14.13;;;;;;;;;;4992604;28;21038;-46
2023/12/08 10:11:05;;;;;;;18.47;13.67;;;;;;;;;;4992423;28;20532;-46
2023/12/08 10:13:31;;;;;;;18.20;13.77;;;;;;;;;;4992319;28;21040;-46
2023/12/08 10:15:57;;;;;;;16.63;13.83;;;;;;;;;;4992260;28;20437;-46
2023/12/08 10:18:24;;;;;;;19.97;14.43;;;;;;;;;;4992141;28;20788;-46
2023/12/08 10:20:50;;;;;;;16.07;13.30;;;;;;;;;;4992377;28;20221;-46
2023/12/08 10:23:23;;;;;;;16.60;13.03;;;;;;;;;;4992112;28;20453;-46
2023/12/08 10:25:49;;;;;;;17.30;13.53;;;;;;;;;;4992298;28;20453;-46
2023/12/08 10:28:15;;;;;;;16.87;13.17;;;;;;;;;;4992045;28;20495;-46
2023/12/08 10:30:48;;;;;;;18.53;13.63;;;;;;;;;;4992266;28;20903;-46
2023/12/08 10:33:23;;;;;;;17.10;12.70;;;;;;;;;;4992033;28;20472;-46
2023/12/08 10:35:50;;;;;;;17.17;12.73;;;;;;;;;;4992069;28;20773;-46
2023/12/08 10:38:17;;;;;;;15.67;12.50;;;;;;;;;;4992032;28;21034;-46
2023/12/08 10:40:48;;;;;;;16.93;13.07;;;;;;;;;;4991748;28;20437;-46
2023/12/08 10:43:20;;;;;;;15.60;12.90;;;;;;;;;;4991933;28;20448;-46
2023/12/08 10:45:46;;;;;;;18.10;12.93;;;;;;;;;;4991940;28;20865;-46
2023/12/08 10:48:12;;;;;;;17.90;13.63;;;;;;;;;;4991986;28;20528;-46
2023/12/08 10:50:38;;;;;;;16.93;13.50;;;;;;;;;;4992281;28;20226;-46
2023/12/08 10:53:05;;;;;;;18.30;13.90;;;;;;;;;;4992156;28;20437;-46
2023/12/08 10:55:31;;;;;;;18.57;14.83;;;;;;;;;;4992312;28;20873;-46
2023/12/08 10:58:01;;;;;;;17.27;13.37;;;;;;;;;;4992096;28;20860;-47
2023/12/08 11:00:31;;;;;;;18.53;14.27;;;;;;;;;;4992451;28;20198;-46
2023/12/08 11:02:58;;;;;;;20.83;14.83;;;;;;;;;;4990325;28;20924;-46
2023/12/08 11:05:28;;;;;;;17.20;14.00;;;;;;;;;;4994688;28;20455;-46
2023/12/08 11:07:54;;;;;;;20.63;15.60;;;;;;;;;;4995902;28;20464;-46
2023/12/08 11:10:21;;;;;;;20.17;14.60;;;;;;;;;;4995586;28;20484;-46
2023/12/08 11:12:51;;;;;;;17.73;14.80;;;;;;;;;;4995647;28;20680;-46
2023/12/08 11:15:21;;;;;;;16.13;12.97;;;;;;;;;;4995328;28;20449;-46
2023/12/08 11:17:50;;;;;;;17.80;14.07;;;;;;;;;;4995615;28;20986;-46
2023/12/08 11:20:17;;;;;;;18.40;13.20;;;;;;;;;;4995228;28;20460;-46
2023/12/08 11:22:46;;;;;;;18.83;13.80;;;;;;;;;;4995493;28;20540;-46
2023/12/08 11:25:15;;;;;;;17.57;12.93;;;;;;;;;;4995410;28;20806;-46
2023/12/08 11:27:49;;;;;;;16.50;13.57;;;;;;;;;;4995448;28;20476;-46
2023/12/08 11:30:16;;;;;;;15.70;13.10;;;;;;;;;;4995111;28;20477;-46
2023/12/08 11:32:48;;;;;;;17.00;13.30;;;;;;;;;;4995378;28;20869;-46
2023/12/08 11:35:15;;;;;;;14.90;12.67;;;;;;;;;;4994984;28;20920;-46
2023/12/08 11:37:44;;;;;;;17.47;12.73;;;;;;;;;;4995328;28;20445;-46
2023/12/08 11:40:11;;;;;;;17.37;13.63;;;;;;;;;;4995352;28;20457;-46
2023/12/08 11:42:37;;;;;;;17.07;13.90;;;;;;;;;;4995311;28;20437;-46
2023/12/08 11:45:06;;;;;;;17.03;12.50;;;;;;;;;;4995051;28;20453;-46
2023/12/08 11:47:32;;;;;;;15.17;12.57;;;;;;;;;;4995117;28;20476;-46
2023/12/08 11:50:00;;;;;;;16.07;12.67;;;;;;;;;;4995071;28;20473;-47
2023/12/08 11:52:27;;;;;;;16.17;12.90;;;;;;;;;;4995048;28;20448;-46
2023/12/08 11:55:12;;;;;;;18.87;13.20;;;;;;;;;;4994922;28;20437;-47
2023/12/08 11:57:42;;;;;;;18.33;13.53;;;;;;;;;;4995199;28;20441;-47
2023/12/08 12:00:10;;;;;;;17.40;13.60;;;;;;;;;;4994861;28;20433;-47
2023/12/08 12:02:38;;;;;;;17.70;13.13;;;;;;;;;;4994855;28;20492;-47
2023/12/08 12:05:05;;;;;;;15.90;12.50;;;;;;;;;;4995055;28;20759;-47
2023/12/08 12:07:32;;;;;;;21.00;14.83;;;;;;;;;;4994775;28;20448;-47
2023/12/08 12:09:58;;;;;;;16.90;13.03;;;;;;;;;;4994689;28;20505;-47
2023/12/08 12:12:26;;;;;;;16.57;13.50;;;;;;;;;;4994844;28;20930;-47
2023/12/08 12:14:55;;;;;;;16.13;13.70;;;;;;;;;;4994431;28;20812;-47
2023/12/08 12:17:21;;;;;;;18.80;12.63;;;;;;;;;;4979875;28;20846;-47
2023/12/08 12:19:47;;;;;;;15.57;12.43;;;;;;;;;;4982598;28;20432;-47
2023/12/08 12:22:15;;;;;;;17.47;12.97;;;;;;;;;;4984509;28;20464;-47
2023/12/08 12:24:41;;;;;;;16.67;13.40;;;;;;;;;;4982708;28;20836;-47
2023/12/08 12:27:07;;;;;;;19.67;13.90;;;;;;;;;;4983944;28;20999;-47
2023/12/08 12:29:36;;;;;;;14.87;11.73;;;;;;;;;;4985831;28;20433;-47
2023/12/08 12:32:03;;;;;;;16.03;13.73;;;;;;;;;;4983201;28;20194;-47
2023/12/08 12:34:29;;;;;;;16.60;12.80;;;;;;;;;;4984020;28;21015;-47
2023/12/08 12:36:55;;;;;;;14.07;12.27;;;;;;;;;;4980913;28;20445;-47
2023/12/08 12:39:23;;;;;;;16.23;12.33;;;;;;;;;;4982134;28;20446;-47
2023/12/08 12:41:49;;;;;;;15.10;12.50;;;;;;;;;;4980633;28;20206;-47
2023/12/08 12:44:16;;;;;;;15.93;12.23;;;;;;;;;;4982104;28;20445;-47
2023/12/08 12:46:42;;;;;;;15.27;12.10;;;;;;;;;;4980525;28;20438;-47
2023/12/08 12:49:13;;;;;;;17.20;13.07;;;;;;;;;;4981850;28;20437;-47
2023/12/08 12:51:42;;;;;;;16.40;12.80;;;;;;;;;;4982265;28;21012;-48
2023/12/08 12:54:08;;;;;;;15.73;12.17;;;;;;;;;;4980426;28;20460;-48
2023/12/08 12:56:37;;;;;;;15.30;11.93;;;;;;;;;;4980330;28;20852;-48
2023/12/08 12:59:03;;;;;;;14.63;12.80;;;;;;;;;;4980318;28;20496;-48
2023/12/08 13:01:31;;;;;;;15.40;12.03;;;;;;;;;;4981865;28;20476;-48
2023/12/08 13:03:57;;;;;;;15.00;12.47;;;;;;;;;;4980498;28;20472;-48
2023/12/08 13:06:30;;;;;;;15.73;13.03;;;;;;;;;;4981963;28;20488;-48
2023/12/08 13:08:56;;;;;;;15.87;12.13;;;;;;;;;;4983945;28;20438;-48
2023/12/08 13:11:22;;;;;;;17.37;12.37;;;;;;;;;;4981707;28;20473;-48
2023/12/08 13:13:49;;;;;;;14.20;12.20;;;;;;;;;;4980163;28;20866;-48
2023/12/08 13:16:16;;;;;;;18.97;13.40;;;;;;;;;;4979937;28;20878;-48
2023/12/08 13:18:45;;;;;;;16.63;13.40;;;;;;;;;;4981850;28;20441;-48
2023/12/08 13:21:11;;;;;;;19.20;14.07;;;;;;;;;;4981725;28;20441;-48
2023/12/08 13:23:37;;;;;;;22.37;14.37;;;;;;;;;;4981582;28;20891;-48
2023/12/08 13:26:04;;;;;;;17.07;12.20;;;;;;;;;;4979829;28;20485;-47
2023/12/08 13:28:31;;;;;;;15.93;12.80;;;;;;;;;;4983604;28;20497;-48
2023/12/08 13:30:59;;;;;;;15.50;12.23;;;;;;;;;;4983086;28;21017;-48
2023/12/08 13:33:25;;;;;;;15.07;12.03;;;;;;;;;;4979659;28;20611;-48
2023/12/08 13:35:51;;;;;;;18.80;13.83;;;;;;;;;;4983586;28;20598;-48
2023/12/08 13:38:17;;;;;;;16.43;12.43;;;;;;;;;;4981942;28;20450;-48
2023/12/08 13:40:43;;;;;;;14.53;12.03;;;;;;;;;;4982903;28;20429;-48
2023/12/08 13:43:09;;;;;;;16.90;13.33;;;;;;;;;;4982997;28;20517;-48
2023/12/08 13:45:35;;;;;;;16.77;12.30;;;;;;;;;;4981143;28;20545;-48
2023/12/08 13:48:03;;;;;;;17.50;13.00;;;;;;;;;;4982443;28;20195;-48
2023/12/08 13:50:29;;;;;;;16.90;13.70;;;;;;;;;;4981099;28;20512;-48
2023/12/08 13:52:55;;;;;;;18.57;12.63;;;;;;;;;;4982932;28;20517;-47
2023/12/08 13:55:22;;;;;;;19.33;14.03;;;;;;;;;;4982163;28;20194;-48
2023/12/08 13:57:48;;;;;;;16.03;13.33;;;;;;;;;;4982611;28;20198;-48
2023/12/08 14:00:16;;;;;;;22.67;14.10;;;;;;;;;;4983248;28;20513;-48
2023/12/08 14:02:42;;;;;;;16.43;13.70;;;;;;;;;;4980985;28;20229;-48
2023/12/08 14:05:10;;;;;;;17.90;13.63;;;;;;;;;;4980873;28;21121;-48
2023/12/08 14:07:36;;;;;;;18.83;14.73;;;;;;;;;;4982643;28;20495;-47
2023/12/08 14:10:02;;;;;;;19.73;14.10;;;;;;;;;;4980642;28;20477;-47
2023/12/08 14:12:28;;;;;;;18.53;13.53;;;;;;;;;;4978924;28;20438;-47
2023/12/08 14:14:54;;;;;;;18.73;14.00;;;;;;;;;;4980810;28;20441;-47